Shinryu Maru — JD3969 — position and weather

sailwx.info

Track history (hours):
 
Tides and Currents Weather Stations Pressure Air Temp Water Temp Dewpoint Dewpoint Depression Visibility Wind Speed Wind Dir Waves Ship Positions

Shinryu Maru

Last reported at 2017-Oct-09 06:46 UTC. Time now 2017-Oct-19 16:12 UTC.
Position N 34°41' E 134°46'.
Warning: this ship's position is 10 days out of date.

Length 84 m; draft 5 m.

Type: Cargo ship. MMSI: 431007228.

Date/timePositionNaut miles runAvg speedWind from/ knotsBaromVisibWave heightAir tempDewpointWater temp
2017-Oct-09 06:46N 34°41' E 134°46'610.9
2017-Oct-09 06:15N 34°38' E 134°52'2 9.5
2017-Oct-09 06:00N 34°37' E 134°55'510.3
2017-Oct-09 05:29N 34°37' E 135°01'5 9.9
2017-Oct-09 05:00N 34°34' E 135°05'713.0
2017-Oct-09 04:30N 34°28' E 135°03'712.8
2017-Oct-09 03:55N 34°21' E 135°01'512.8
2017-Oct-09 03:30N 34°16' E 134°59'  
2017-Oct-05 07:25N 34°50' E 139°32'512.9
2017-Oct-05 07:00N 34°51' E 139°38'712.5
2017-Oct-05 06:29N 34°52' E 139°46'1212.0
2017-Oct-05 05:29N 34°54' E 140°00'712.1
2017-Oct-05 04:54N 34°58' E 140°07'  
2017-Oct-02 09:10N 34°53' E 139°49'513.3
2017-Oct-02 08:45N 34°58' E 139°45'313.2
2017-Oct-02 08:30N 35°01' E 139°43'613.0
2017-Oct-02 08:00N 35°07' E 139°45'713.4
2017-Oct-02 07:30N 35°14' E 139°46'713.1
2017-Oct-02 07:00N 35°20' E 139°43'612.3
2017-Oct-02 06:30N 35°26' E 139°45'713.3
2017-Oct-02 06:00N 35°30' E 139°51'713.2
2017-Oct-02 05:29N 35°35' E 139°56'  
Track history (hours):
 
Tides and Currents Weather Stations Pressure Air Temp Water Temp Dewpoint Dewpoint Depression Visibility Wind Speed Wind Dir Waves Ship Positions

Shinryu Maru

Last reported at 2017-Oct-09 06:46 UTC. Time now 2017-Oct-19 16:12 UTC.
Position N 34°41' E 134°46'.
Warning: this ship's position is 10 days out of date.

Length 84 m; draft 5 m.

Type: Cargo ship. MMSI: 431007228.

Date/timePositionNaut miles runAvg speedWind from/ knotsBaromVisibWave heightAir tempDewpointWater temp
2017-Oct-09 06:46N 34°41' E 134°46'610.9
2017-Oct-09 06:15N 34°38' E 134°52'2 9.5
2017-Oct-09 06:00N 34°37' E 134°55'510.3
2017-Oct-09 05:29N 34°37' E 135°01'5 9.9
2017-Oct-09 05:00N 34°34' E 135°05'713.0
2017-Oct-09 04:30N 34°28' E 135°03'712.8
2017-Oct-09 03:55N 34°21' E 135°01'512.8
2017-Oct-09 03:30N 34°16' E 134°59'  
2017-Oct-05 07:25N 34°50' E 139°32'512.9
2017-Oct-05 07:00N 34°51' E 139°38'712.5
2017-Oct-05 06:29N 34°52' E 139°46'1212.0
2017-Oct-05 05:29N 34°54' E 140°00'712.1
2017-Oct-05 04:54N 34°58' E 140°07'  
2017-Oct-02 09:10N 34°53' E 139°49'513.3
2017-Oct-02 08:45N 34°58' E 139°45'313.2
2017-Oct-02 08:30N 35°01' E 139°43'613.0
2017-Oct-02 08:00N 35°07' E 139°45'713.4
2017-Oct-02 07:30N 35°14' E 139°46'713.1
2017-Oct-02 07:00N 35°20' E 139°43'612.3
2017-Oct-02 06:30N 35°26' E 139°45'713.3
2017-Oct-02 06:00N 35°30' E 139°51'713.2
2017-Oct-02 05:29N 35°35' E 139°56'  

Dump ship's entire track history